Terminal Aerodrome Forecast
Issued by NWS

Home | Current Version | Previous Version | Text Only | Print | Product List | Glossary On
Versions: 1 2 3 4 5 6 7 8 9 10 11 12 13 14 15
000
FTUS45 KABQ 222320
TAFTCC
TAF
KTCC 222320Z 2300/2324 22010G16KT P6SM SCT250
     FM230100 22008KT P6SM SCT250
     FM231500 05015KT P6SM SCT250
     FM232100 08012KT P6SM SCT250=

USA.gov is the U.S. government's official web portal to all federal, state and local government web resources and services.